Finikia — YKRO — position and weather

sailwx.info

Track history (hours):
 
Tides and Currents Weather Stations Pressure Air Temp Water Temp Dewpoint Dewpoint Depression Visibility Wind Speed Wind Dir Waves Ship Positions

Finikia

Last reported at 2015-May-15 06:33 UTC. Time now 2015-May-23 13:25 UTC.
Position N 36°11' E 026°23'.
Warning: this ship's position is 8 days out of date.

Length 138 m; draft 6.2 m.

Type: Cargo ship. MMSI: 468395000.

Date/timePositionNaut miles runAvg speedWind from/ knotsBaromVisibWave heightAir tempDewpointWater temp
2015-May-15 06:33N 36°11' E 026°23'1212.1
2015-May-15 05:33N 36°09' E 026°08'1212.1
2015-May-15 04:33N 36°07' E 025°53'1212.2
2015-May-15 03:33N 36°04' E 025°38'1212.3
2015-May-15 02:33N 36°02' E 025°23'1212.1
2015-May-15 01:33N 35°59' E 025°09'1110.8
2015-May-15 00:32N 35°58' E 024°55'1512.6
2015-May-14 23:23N 35°56' E 024°37'1312.8
2015-May-14 22:23N 35°53' E 024°22'27512.4
2015-May-14 00:13N 36°02' E 018°42'4512.3
2015-May-13 20:32N 36°05' E 017°46'1712.2
2015-May-13 19:07N 36°06' E 017°25'812.6
2015-May-13 18:29N 36°07' E 017°15'11512.5
2015-May-13 09:14N 36°15' E 014°52'1012.7
2015-May-13 08:29N 36°16' E 014°40'1212.5
2015-May-13 07:33N 36°17' E 014°26'1212.0
2015-May-13 06:33N 36°17' E 014°11'1212.1
2015-May-13 05:33N 36°15' E 013°56'1212.1
2015-May-13 04:33N 36°14' E 013°42'1212.1
2015-May-13 03:33N 36°12' E 013°27'1312.2
2015-May-13 02:29N 36°10' E 013°11'11711.8
2015-May-12 16:33N 35°51' E 010°47'5 1.0
2015-May-12 11:06N 35°51' E 010°41'0 0.0
2015-May-11 13:30N 35°51' E 010°41'  
2015-May-08 18:33N 35°51' E 010°41'0 0.0
2015-May-08 17:12N 35°51' E 010°41'0 0.1
2015-May-08 16:33N 35°51' E 010°41'0 0.0
2015-May-08 15:30N 35°51' E 010°41'0 0.0
2015-May-08 12:30N 35°51' E 010°41'0 0.0
2015-May-08 11:30N 35°51' E 010°41'0 0.0
2015-May-07 21:06N 35°51' E 010°41'0 0.0
2015-May-07 20:33N 35°51' E 010°41'0 0.0
2015-May-07 16:33N 35°51' E 010°41'0 0.0
2015-May-07 15:33N 35°51' E 010°41'0 0.0
2015-May-06 23:33N 35°51' E 010°41'0 0.0
2015-May-06 22:24N 35°51' E 010°41'0 0.0
2015-May-06 21:33N 35°51' E 010°41'0 0.0
2015-May-06 20:33N 35°51' E 010°41'0 0.0
2015-May-06 19:33N 35°51' E 010°41'0 0.0
2015-May-06 17:24N 35°51' E 010°41'0 0.0
2015-May-06 16:34N 35°51' E 010°41'0 0.1
2015-May-06 15:16N 35°51' E 010°41'2 3.3
2015-May-06 14:33N 35°50' E 010°39'0 0.0
2015-May-06 13:28N 35°50' E 010°39'0 0.0
2015-May-06 12:10N 35°50' E 010°39'0 0.0
2015-May-06 11:31N 35°50' E 010°39'0 0.0
2015-May-06 10:31N 35°50' E 010°39'0 0.0
2015-May-06 09:31N 35°50' E 010°39'0 0.0
2015-May-06 08:31N 35°50' E 010°39'0 0.0
2015-May-06 07:31N 35°50' E 010°39'0 0.0
2015-May-06 06:31N 35°50' E 010°39'0 0.0
2015-May-06 05:28N 35°50' E 010°39'0 0.0
2015-May-06 04:31N 35°50' E 010°39'0 0.0
2015-May-06 02:31N 35°50' E 010°39'0 0.0
2015-May-06 01:31N 35°50' E 010°39'0 0.0
2015-May-06 00:22N 35°50' E 010°39'0 0.0
2015-May-05 17:28N 35°50' E 010°39'0 0.0
2015-May-05 16:31N 35°50' E 010°39'0 0.0
2015-May-05 15:31N 35°50' E 010°39'  
Track history (hours):
 
Tides and Currents Weather Stations Pressure Air Temp Water Temp Dewpoint Dewpoint Depression Visibility Wind Speed Wind Dir Waves Ship Positions

Finikia

Last reported at 2015-May-15 06:33 UTC. Time now 2015-May-23 13:25 UTC.
Position N 36°11' E 026°23'.
Warning: this ship's position is 8 days out of date.

Length 138 m; draft 6.2 m.

Type: Cargo ship. MMSI: 468395000.

Date/timePositionNaut miles runAvg speedWind from/ knotsBaromVisibWave heightAir tempDewpointWater temp
2015-May-15 06:33N 36°11' E 026°23'1212.1
2015-May-15 05:33N 36°09' E 026°08'1212.1
2015-May-15 04:33N 36°07' E 025°53'1212.2
2015-May-15 03:33N 36°04' E 025°38'1212.3
2015-May-15 02:33N 36°02' E 025°23'1212.1
2015-May-15 01:33N 35°59' E 025°09'1110.8
2015-May-15 00:32N 35°58' E 024°55'1512.6
2015-May-14 23:23N 35°56' E 024°37'1312.8
2015-May-14 22:23N 35°53' E 024°22'27512.4
2015-May-14 00:13N 36°02' E 018°42'4512.3
2015-May-13 20:32N 36°05' E 017°46'1712.2
2015-May-13 19:07N 36°06' E 017°25'812.6
2015-May-13 18:29N 36°07' E 017°15'11512.5
2015-May-13 09:14N 36°15' E 014°52'1012.7
2015-May-13 08:29N 36°16' E 014°40'1212.5
2015-May-13 07:33N 36°17' E 014°26'1212.0
2015-May-13 06:33N 36°17' E 014°11'1212.1
2015-May-13 05:33N 36°15' E 013°56'1212.1
2015-May-13 04:33N 36°14' E 013°42'1212.1
2015-May-13 03:33N 36°12' E 013°27'1312.2
2015-May-13 02:29N 36°10' E 013°11'11711.8
2015-May-12 16:33N 35°51' E 010°47'5 1.0
2015-May-12 11:06N 35°51' E 010°41'0 0.0
2015-May-11 13:30N 35°51' E 010°41'  
2015-May-08 18:33N 35°51' E 010°41'0 0.0
2015-May-08 17:12N 35°51' E 010°41'0 0.1
2015-May-08 16:33N 35°51' E 010°41'0 0.0
2015-May-08 15:30N 35°51' E 010°41'0 0.0
2015-May-08 12:30N 35°51' E 010°41'0 0.0
2015-May-08 11:30N 35°51' E 010°41'0 0.0
2015-May-07 21:06N 35°51' E 010°41'0 0.0
2015-May-07 20:33N 35°51' E 010°41'0 0.0
2015-May-07 16:33N 35°51' E 010°41'0 0.0
2015-May-07 15:33N 35°51' E 010°41'0 0.0
2015-May-06 23:33N 35°51' E 010°41'0 0.0
2015-May-06 22:24N 35°51' E 010°41'0 0.0
2015-May-06 21:33N 35°51' E 010°41'0 0.0
2015-May-06 20:33N 35°51' E 010°41'0 0.0
2015-May-06 19:33N 35°51' E 010°41'0 0.0
2015-May-06 17:24N 35°51' E 010°41'0 0.0
2015-May-06 16:34N 35°51' E 010°41'0 0.1
2015-May-06 15:16N 35°51' E 010°41'2 3.3
2015-May-06 14:33N 35°50' E 010°39'0 0.0
2015-May-06 13:28N 35°50' E 010°39'0 0.0
2015-May-06 12:10N 35°50' E 010°39'0 0.0
2015-May-06 11:31N 35°50' E 010°39'0 0.0
2015-May-06 10:31N 35°50' E 010°39'0 0.0
2015-May-06 09:31N 35°50' E 010°39'0 0.0
2015-May-06 08:31N 35°50' E 010°39'0 0.0
2015-May-06 07:31N 35°50' E 010°39'0 0.0
2015-May-06 06:31N 35°50' E 010°39'0 0.0
2015-May-06 05:28N 35°50' E 010°39'0 0.0
2015-May-06 04:31N 35°50' E 010°39'0 0.0
2015-May-06 02:31N 35°50' E 010°39'0 0.0
2015-May-06 01:31N 35°50' E 010°39'0 0.0
2015-May-06 00:22N 35°50' E 010°39'0 0.0
2015-May-05 17:28N 35°50' E 010°39'0 0.0
2015-May-05 16:31N 35°50' E 010°39'0 0.0
2015-May-05 15:31N 35°50' E 010°39'  

Dump ship's entire track history